sensor_id;sensor_type;location;lat;lon;timestamp;P1;P2;P0
33948;PMS7003;20229;49.856;19.030;2022-09-27T00:03:16;38;30;22
33948;PMS7003;20229;49.856;19.030;2022-09-27T00:08:20;38;31;23
33948;PMS7003;20229;49.856;19.030;2022-09-27T00:13:42;40;33;24
33948;PMS7003;20229;49.856;19.030;2022-09-27T00:18:45;40;31;23
33948;PMS7003;20229;49.856;19.030;2022-09-27T00:29:19;36;28;21
33948;PMS7003;20229;49.856;19.030;2022-09-27T00:34:33;37;31;24
33948;PMS7003;20229;49.856;19.030;2022-09-27T00:39:37;36;30;23
33948;PMS7003;20229;49.856;19.030;2022-09-27T00:45:00;35;29;22
33948;PMS7003;20229;49.856;19.030;2022-09-27T00:55:27;29;24;18
33948;PMS7003;20229;49.856;19.030;2022-09-27T01:00:35;21;19;13
33948;PMS7003;20229;49.856;19.030;2022-09-27T01:05:51;19;17;12
33948;PMS7003;20229;49.856;19.030;2022-09-27T01:11:03;26;21;15
33948;PMS7003;20229;49.856;19.030;2022-09-27T01:21:34;22;19;12
33948;PMS7003;20229;49.856;19.030;2022-09-27T01:37:25;23;19;14
33948;PMS7003;20229;49.856;19.030;2022-09-27T01:42:39;22;16;10
33948;PMS7003;20229;49.856;19.030;2022-09-27T01:47:56;22;20;15
33948;PMS7003;20229;49.856;19.030;2022-09-27T02:03:38;26;22;15
33948;PMS7003;20229;49.856;19.030;2022-09-27T02:14:07;18;16;10
33948;PMS7003;20229;49.856;19.030;2022-09-27T02:35:08;12;9;5
33948;PMS7003;20229;49.856;19.030;2022-09-27T02:40:14;14;12;7
33948;PMS7003;20229;49.856;19.030;2022-09-27T02:45:18;12;10;6
33948;PMS7003;20229;49.856;19.030;2022-09-27T03:06:12;12;10;4
33948;PMS7003;20229;49.856;19.030;2022-09-27T03:11:19;12;9;4
33948;PMS7003;20229;49.856;19.030;2022-09-27T03:16:23;8;7;3
33948;PMS7003;20229;49.856;19.030;2022-09-27T03:21:26;28;25;20
33948;PMS7003;20229;49.856;19.030;2022-09-27T03:26:31;26;25;22
33948;PMS7003;20229;49.856;19.030;2022-09-27T03:31:49;23;21;16
33948;PMS7003;20229;49.856;19.030;2022-09-27T03:36:53;26;23;19
33948;PMS7003;20229;49.856;19.030;2022-09-27T03:42:15;20;18;14
33948;PMS7003;20229;49.856;19.030;2022-09-27T03:47:18;26;22;16
33948;PMS7003;20229;49.856;19.030;2022-09-27T03:52:41;24;21;16
33948;PMS7003;20229;49.856;19.030;2022-09-27T03:57:45;27;23;18
33948;PMS7003;20229;49.856;19.030;2022-09-27T04:03:06;31;28;21
33948;PMS7003;20229;49.856;19.030;2022-09-27T04:08:10;30;25;21
33948;PMS7003;20229;49.856;19.030;2022-09-27T04:13:32;37;31;26
33948;PMS7003;20229;49.856;19.030;2022-09-27T04:18:35;41;33;27
33948;PMS7003;20229;49.856;19.030;2022-09-27T04:23:58;44;35;29
33948;PMS7003;20229;49.856;19.030;2022-09-27T04:29:01;41;34;29
33948;PMS7003;20229;49.856;19.030;2022-09-27T04:34:23;39;32;27
33948;PMS7003;20229;49.856;19.030;2022-09-27T04:39:38;36;29;24
33948;PMS7003;20229;49.856;19.030;2022-09-27T04:44:49;28;25;20
33948;PMS7003;20229;49.856;19.030;2022-09-27T04:49:54;26;22;17
33948;PMS7003;20229;49.856;19.030;2022-09-27T04:55:15;24;20;16
33948;PMS7003;20229;49.856;19.030;2022-09-27T05:00:18;21;18;13
33948;PMS7003;20229;49.856;19.030;2022-09-27T05:05:40;21;20;16
33948;PMS7003;20229;49.856;19.030;2022-09-27T05:10:43;30;28;23
33948;PMS7003;20229;49.856;19.030;2022-09-27T05:16:06;7;7;3
33948;PMS7003;20229;49.856;19.030;2022-09-27T05:21:10;12;9;5
33948;PMS7003;20229;49.856;19.030;2022-09-27T05:26:32;43;41;36
33948;PMS7003;20229;49.856;19.030;2022-09-27T05:31:35;56;51;48
33948;PMS7003;20229;49.856;19.030;2022-09-27T05:36:57;46;41;37
33948;PMS7003;20229;49.856;19.030;2022-09-27T05:42:01;30;26;22
33948;PMS7003;20229;49.856;19.030;2022-09-27T05:47:23;7;6;2
33948;PMS7003;20229;49.856;19.030;2022-09-27T05:52:26;24;21;15
33948;PMS7003;20229;49.856;19.030;2022-09-27T06:03:01;18;17;13
33948;PMS7003;20229;49.856;19.030;2022-09-27T06:08:14;17;14;11
33948;PMS7003;20229;49.856;19.030;2022-09-27T06:13:18;16;16;12
33948;PMS7003;20229;49.856;19.030;2022-09-27T06:18:41;12;12;9
33948;PMS7003;20229;49.856;19.030;2022-09-27T06:23:44;16;13;9
33948;PMS7003;20229;49.856;19.030;2022-09-27T06:29:06;11;10;8
33948;PMS7003;20229;49.856;19.030;2022-09-27T06:34:09;15;11;9
33948;PMS7003;20229;49.856;19.030;2022-09-27T06:39:31;14;12;9
33948;PMS7003;20229;49.856;19.030;2022-09-27T06:44:37;12;11;9
33948;PMS7003;20229;49.856;19.030;2022-09-27T06:49:56;10;9;7
33948;PMS7003;20229;49.856;19.030;2022-09-27T06:55:00;10;9;6
33948;PMS7003;20229;49.856;19.030;2022-09-27T07:00:22;13;11;8
33948;PMS7003;20229;49.856;19.030;2022-09-27T07:05:26;17;15;11
33948;PMS7003;20229;49.856;19.030;2022-09-27T07:10:55;19;14;10
33948;PMS7003;20229;49.856;19.030;2022-09-27T07:16:04;19;8;6
33948;PMS7003;20229;49.856;19.030;2022-09-27T07:21:20;17;13;8
33948;PMS7003;20229;49.856;19.030;2022-09-27T07:26:23;18;13;9
33948;PMS7003;20229;49.856;19.030;2022-09-27T07:31:45;18;17;13
33948;PMS7003;20229;49.856;19.030;2022-09-27T07:36:48;18;18;14
33948;PMS7003;20229;49.856;19.030;2022-09-27T07:42:10;23;18;13
33948;PMS7003;20229;49.856;19.030;2022-09-27T07:47:14;16;14;10
33948;PMS7003;20229;49.856;19.030;2022-09-27T07:52:39;34;30;23
33948;PMS7003;20229;49.856;19.030;2022-09-27T07:57:44;47;39;31
33948;PMS7003;20229;49.856;19.030;2022-09-27T08:03:05;34;30;24
33948;PMS7003;20229;49.856;19.030;2022-09-27T08:08:13;38;34;27
33948;PMS7003;20229;49.856;19.030;2022-09-27T08:13:27;17;15;10
33948;PMS7003;20229;49.856;19.030;2022-09-27T08:18:31;18;16;12
33948;PMS7003;20229;49.856;19.030;2022-09-27T08:23:52;25;21;18
33948;PMS7003;20229;49.856;19.030;2022-09-27T08:28:56;35;32;26
33948;PMS7003;20229;49.856;19.030;2022-09-27T08:34:21;17;14;10
33948;PMS7003;20229;49.856;19.030;2022-09-27T08:39:25;31;30;23
33948;PMS7003;20229;49.856;19.030;2022-09-27T09:00:31;57;47;39
33948;PMS7003;20229;49.856;19.030;2022-09-27T09:05:35;46;39;30
33948;PMS7003;20229;49.856;19.030;2022-09-27T09:21:26;40;34;26
33948;PMS7003;20229;49.856;19.030;2022-09-27T09:26:46;44;36;28
33948;PMS7003;20229;49.856;19.030;2022-09-27T09:32:03;56;46;39
33948;PMS7003;20229;49.856;19.030;2022-09-27T09:42:25;21;18;14
33948;PMS7003;20229;49.856;19.030;2022-09-27T09:47:36;51;41;34
33948;PMS7003;20229;49.856;19.030;2022-09-27T09:58:07;41;35;28
33948;PMS7003;20229;49.856;19.030;2022-09-27T10:03:18;62;50;46
33948;PMS7003;20229;49.856;19.030;2022-09-27T10:08:22;17;14;11
33948;PMS7003;20229;49.856;19.030;2022-09-27T10:13:29;15;14;10
33948;PMS7003;20229;49.856;19.030;2022-09-27T10:18:36;37;32;27
33948;PMS7003;20229;49.856;19.030;2022-09-27T10:29:12;14;14;10
33948;PMS7003;20229;49.856;19.030;2022-09-27T10:34:17;9;8;5
33948;PMS7003;20229;49.856;19.030;2022-09-27T10:39:28;7;7;4
33948;PMS7003;20229;49.856;19.030;2022-09-27T10:44:32;6;6;4
33948;PMS7003;20229;49.856;19.030;2022-09-27T10:49:49;6;6;3
33948;PMS7003;20229;49.856;19.030;2022-09-27T10:54:59;10;8;7
33948;PMS7003;20229;49.856;19.030;2022-09-27T11:05:30;8;7;4
33948;PMS7003;20229;49.856;19.030;2022-09-27T11:10:39;8;8;6
33948;PMS7003;20229;49.856;19.030;2022-09-27T11:37:00;36;31;25
33948;PMS7003;20229;49.856;19.030;2022-09-27T11:42:19;46;38;31
33948;PMS7003;20229;49.856;19.030;2022-09-27T11:52:46;28;26;21
33948;PMS7003;20229;49.856;19.030;2022-09-27T11:58:02;15;14;12
33948;PMS7003;20229;49.856;19.030;2022-09-27T12:13:47;36;32;26
33948;PMS7003;20229;49.856;19.030;2022-09-27T12:18:57;33;29;22
33948;PMS7003;20229;49.856;19.030;2022-09-27T12:24:03;19;19;14
33948;PMS7003;20229;49.856;19.030;2022-09-27T12:39:44;24;21;15
33948;PMS7003;20229;49.856;19.030;2022-09-27T12:44:58;25;22;16
33948;PMS7003;20229;49.856;19.030;2022-09-27T13:00:40;28;22;16
33948;PMS7003;20229;49.856;19.030;2022-09-27T13:05:57;25;23;18
33948;PMS7003;20229;49.856;19.030;2022-09-27T13:11:11;18;17;12
33948;PMS7003;20229;49.856;19.030;2022-09-27T13:16:21;16;15;11
33948;PMS7003;20229;49.856;19.030;2022-09-27T13:26:43;23;22;15
33948;PMS7003;20229;49.856;19.030;2022-09-27T13:37:50;52;38;25
33948;PMS7003;20229;49.856;19.030;2022-09-27T13:42:26;33;25;17
33948;PMS7003;20229;49.856;19.030;2022-09-27T13:47:37;4;3;1
33948;PMS7003;20229;49.856;19.030;2022-09-27T13:58:04;10;9;8
33948;PMS7003;20229;49.856;19.030;2022-09-27T14:03:19;6;5;3
33948;PMS7003;20229;49.856;19.030;2022-09-27T14:08:36;9;4;3
33948;PMS7003;20229;49.856;19.030;2022-09-27T14:13:46;12;5;4
33948;PMS7003;20229;49.856;19.030;2022-09-27T14:18:54;17;7;6
33948;PMS7003;20229;49.856;19.030;2022-09-27T14:29:18;19;10;9
33948;PMS7003;20229;49.856;19.030;2022-09-27T14:34:23;15;6;5
33948;PMS7003;20229;49.856;19.030;2022-09-27T14:39:28;33;23;21
33948;PMS7003;20229;49.856;19.030;2022-09-27T14:44:34;29;18;16
33948;PMS7003;20229;49.856;19.030;2022-09-27T14:49:44;31;21;19
33948;PMS7003;20229;49.856;19.030;2022-09-27T14:54:56;35;26;25
33948;PMS7003;20229;49.856;19.030;2022-09-27T15:05:17;32;20;18
33948;PMS7003;20229;49.856;19.030;2022-09-27T15:10:25;17;8;6
33948;PMS7003;20229;49.856;19.030;2022-09-27T15:15:33;19;8;6
33948;PMS7003;20229;49.856;19.030;2022-09-27T15:20:53;16;7;5
33948;PMS7003;20229;49.856;19.030;2022-09-27T15:25:59;23;11;11
33948;PMS7003;20229;49.856;19.030;2022-09-27T15:31:15;41;31;29
33948;PMS7003;20229;49.856;19.030;2022-09-27T15:36:30;39;26;22
33948;PMS7003;20229;49.856;19.030;2022-09-27T15:46:58;47;36;32
33948;PMS7003;20229;49.856;19.030;2022-09-27T15:52:06;52;44;42
33948;PMS7003;20229;49.856;19.030;2022-09-27T15:57:28;47;36;33
33948;PMS7003;20229;49.856;19.030;2022-09-27T16:02:32;43;30;26
33948;PMS7003;20229;49.856;19.030;2022-09-27T16:07:35;38;28;23
33948;PMS7003;20229;49.856;19.030;2022-09-27T16:12:58;27;18;14
33948;PMS7003;20229;49.856;19.030;2022-09-27T16:18:01;26;17;13
33948;PMS7003;20229;49.856;19.030;2022-09-27T16:23:23;34;22;16
33948;PMS7003;20229;49.856;19.030;2022-09-27T16:28:27;22;13;11
33948;PMS7003;20229;49.856;19.030;2022-09-27T16:33:49;23;14;12
33948;PMS7003;20229;49.856;19.030;2022-09-27T16:38:53;23;15;13
33948;PMS7003;20229;49.856;19.030;2022-09-27T16:44:14;22;12;10
33948;PMS7003;20229;49.856;19.030;2022-09-27T16:49:20;30;19;15
33948;PMS7003;20229;49.856;19.030;2022-09-27T16:54:40;24;21;15
33948;PMS7003;20229;49.856;19.030;2022-09-27T16:59:44;17;16;12
33948;PMS7003;20229;49.856;19.030;2022-09-27T17:05:06;25;19;14
33948;PMS7003;20229;49.856;19.030;2022-09-27T17:10:09;18;17;13
33948;PMS7003;20229;49.856;19.030;2022-09-27T17:15:31;20;18;13
33948;PMS7003;20229;49.856;19.030;2022-09-27T17:20:34;23;20;14
33948;PMS7003;20229;49.856;19.030;2022-09-27T17:31:12;23;22;15
33948;PMS7003;20229;49.856;19.030;2022-09-27T17:36:23;25;23;17
33948;PMS7003;20229;49.856;19.030;2022-09-27T17:41:32;28;22;16
33948;PMS7003;20229;49.856;19.030;2022-09-27T17:46:48;32;27;20
33948;PMS7003;20229;49.856;19.030;2022-09-27T17:52:02;28;24;18
33948;PMS7003;20229;49.856;19.030;2022-09-27T17:57:13;34;27;21
33948;PMS7003;20229;49.856;19.030;2022-09-27T18:02:17;25;23;17
33948;PMS7003;20229;49.856;19.030;2022-09-27T18:07:39;33;27;20
33948;PMS7003;20229;49.856;19.030;2022-09-27T18:12:42;28;24;19
33948;PMS7003;20229;49.856;19.030;2022-09-27T18:18:05;38;31;24
33948;PMS7003;20229;49.856;19.030;2022-09-27T18:23:09;31;26;19
33948;PMS7003;20229;49.856;19.030;2022-09-27T18:28:30;32;26;20
33948;PMS7003;20229;49.856;19.030;2022-09-27T18:33:34;27;22;17
33948;PMS7003;20229;49.856;19.030;2022-09-27T18:38:57;32;27;20
33948;PMS7003;20229;49.856;19.030;2022-09-27T18:44:03;27;23;19
33948;PMS7003;20229;49.856;19.030;2022-09-27T18:49:22;25;23;19
33948;PMS7003;20229;49.856;19.030;2022-09-27T18:54:25;35;30;23
33948;PMS7003;20229;49.856;19.030;2022-09-27T18:59:48;32;26;20
33948;PMS7003;20229;49.856;19.030;2022-09-27T19:04:51;34;28;21
33948;PMS7003;20229;49.856;19.030;2022-09-27T19:10:13;31;27;20
33948;PMS7003;20229;49.856;19.030;2022-09-27T19:15:17;37;30;22
33948;PMS7003;20229;49.856;19.030;2022-09-27T19:20:40;39;30;23
33948;PMS7003;20229;49.856;19.030;2022-09-27T19:25:44;38;31;23
33948;PMS7003;20229;49.856;19.030;2022-09-27T19:31:09;37;31;23
33948;PMS7003;20229;49.856;19.030;2022-09-27T19:36:17;35;29;23
33948;PMS7003;20229;49.856;19.030;2022-09-27T19:41:31;40;31;23
33948;PMS7003;20229;49.856;19.030;2022-09-27T19:46:34;35;29;21
33948;PMS7003;20229;49.856;19.030;2022-09-27T19:51:57;38;32;24
33948;PMS7003;20229;49.856;19.030;2022-09-27T19:57:01;33;27;21
33948;PMS7003;20229;49.856;19.030;2022-09-27T20:02:22;34;28;22
33948;PMS7003;20229;49.856;19.030;2022-09-27T20:07:26;36;29;22
33948;PMS7003;20229;49.856;19.030;2022-09-27T20:12:48;29;25;20
33948;PMS7003;20229;49.856;19.030;2022-09-27T20:17:53;31;26;21
33948;PMS7003;20229;49.856;19.030;2022-09-27T20:23:14;23;22;18
33948;PMS7003;20229;49.856;19.030;2022-09-27T20:28:22;30;25;20
33948;PMS7003;20229;49.856;19.030;2022-09-27T20:33:40;31;27;21
33948;PMS7003;20229;49.856;19.030;2022-09-27T20:38:45;29;25;19
33948;PMS7003;20229;49.856;19.030;2022-09-27T20:44:07;31;27;21
33948;PMS7003;20229;49.856;19.030;2022-09-27T20:49:18;33;28;22
33948;PMS7003;20229;49.856;19.030;2022-09-27T20:54:31;29;25;19
33948;PMS7003;20229;49.856;19.030;2022-09-27T20:59:35;29;25;20
33948;PMS7003;20229;49.856;19.030;2022-09-27T21:04:57;30;27;21
33948;PMS7003;20229;49.856;19.030;2022-09-27T21:10:00;29;25;21
33948;PMS7003;20229;49.856;19.030;2022-09-27T21:15:23;31;26;21
33948;PMS7003;20229;49.856;19.030;2022-09-27T21:20:26;29;25;20
33948;PMS7003;20229;49.856;19.030;2022-09-27T21:25:48;19;19;16
33948;PMS7003;20229;49.856;19.030;2022-09-27T21:30:59;27;23;19
33948;PMS7003;20229;49.856;19.030;2022-09-27T21:36:14;31;26;21
33948;PMS7003;20229;49.856;19.030;2022-09-27T21:41:18;28;25;20
33948;PMS7003;20229;49.856;19.030;2022-09-27T21:46:40;24;22;18
33948;PMS7003;20229;49.856;19.030;2022-09-27T21:51:44;29;25;20
33948;PMS7003;20229;49.856;19.030;2022-09-27T21:57:07;26;23;19
33948;PMS7003;20229;49.856;19.030;2022-09-27T22:02:11;27;25;20
33948;PMS7003;20229;49.856;19.030;2022-09-27T22:07:31;25;23;19
33948;PMS7003;20229;49.856;19.030;2022-09-27T22:12:35;25;23;19
33948;PMS7003;20229;49.856;19.030;2022-09-27T22:17:57;24;21;17
33948;PMS7003;20229;49.856;19.030;2022-09-27T22:23:02;28;24;20
33948;PMS7003;20229;49.856;19.030;2022-09-27T22:28:23;28;25;20
33948;PMS7003;20229;49.856;19.030;2022-09-27T22:33:27;26;23;19
33948;PMS7003;20229;49.856;19.030;2022-09-27T22:38:49;25;23;18
33948;PMS7003;20229;49.856;19.030;2022-09-27T22:43:53;29;25;20
33948;PMS7003;20229;49.856;19.030;2022-09-27T22:49:14;28;24;19
33948;PMS7003;20229;49.856;19.030;2022-09-27T22:54:18;27;23;18
33948;PMS7003;20229;49.856;19.030;2022-09-27T22:59:40;20;19;17
33948;PMS7003;20229;49.856;19.030;2022-09-27T23:04:43;21;20;17
33948;PMS7003;20229;49.856;19.030;2022-09-27T23:10:06;25;23;19
33948;PMS7003;20229;49.856;19.030;2022-09-27T23:15:10;24;22;18
33948;PMS7003;20229;49.856;19.030;2022-09-27T23:20:31;13;13;10
33948;PMS7003;20229;49.856;19.030;2022-09-27T23:25:36;19;16;13
33948;PMS7003;20229;49.856;19.030;2022-09-27T23:36:14;28;26;24
33948;PMS7003;20229;49.856;19.030;2022-09-27T23:41:23;48;44;41
33948;PMS7003;20229;49.856;19.030;2022-09-27T23:46:27;40;33;30
33948;PMS7003;20229;49.856;19.030;2022-09-27T23:51:49;24;22;20
33948;PMS7003;20229;49.856;19.030;2022-09-27T23:56:53;5;5;3
